Time;durP1;ratioP1;P1;durP2;ratioP2;P2;SDS_P1;SDS_P2;PMS_P1;PMS_P2;Temp;Humidity;BMP_temperature;BMP_pressure;BME280_temperature;BME280_humidity;BME280_pressure;Samples;Min_cycle;Max_cycle;Signal;HPM_P1;HPM_P2
2022/06/01 00:00:40;;;;;;;2.60;2.40;;;18.90;55.60;;;-142.21;81.82;112049.66;5073529;28;20651;-72
2022/06/01 00:03:07;;;;;;;3.47;2.30;;;19.00;55.60;;;-142.21;81.82;112049.66;5090544;28;20642;-71
2022/06/01 00:05:35;;;;;;;3.57;2.33;;;18.90;55.50;;;-142.21;82.33;112049.66;5091458;28;20232;-72
2022/06/01 00:08:03;;;;;;;3.83;2.50;;;19.10;55.70;;;-142.21;82.03;112049.66;5073148;28;20542;-72
2022/06/01 00:10:31;;;;;;;2.90;2.60;;;19.00;55.70;;;-142.21;81.93;112049.66;5057986;28;20200;-72
2022/06/01 00:13:00;;;;;;;3.23;2.40;;;19.00;55.70;;;-142.21;82.13;112049.66;5057036;28;20717;-72
2022/06/01 00:15:30;;;;;;;3.43;2.43;;;19.10;55.80;;;-142.21;82.32;112049.66;5084372;28;20200;-72
2022/06/01 00:18:00;;;;;;;3.90;2.47;;;19.00;55.70;;;-142.21;83.26;112049.66;5084012;28;20599;-72
2022/06/01 00:20:28;;;;;;;2.60;2.40;;;19.00;55.90;;;-142.21;83.06;112049.66;5075130;28;21008;-72
2022/06/01 00:22:56;;;;;;;2.93;2.33;;;19.00;56.00;;;-142.21;83.06;112049.66;5092669;28;20212;-71
2022/06/01 00:25:24;;;;;;;3.40;2.40;;;18.90;56.00;;;-142.21;83.84;112049.66;5074615;28;20776;-72
2022/06/01 00:27:52;;;;;;;2.93;2.50;;;18.90;56.30;;;-142.21;84.26;112049.66;5085771;28;20443;-72
2022/06/01 00:30:23;;;;;;;2.70;2.50;;;18.80;56.50;;;-142.21;84.98;112049.66;5053383;28;20464;-72
2022/06/01 00:32:51;;;;;;;2.60;2.40;;;18.80;57.60;;;-142.21;85.64;112049.66;5085300;28;20496;-72
2022/06/01 00:35:24;;;;;;;2.93;2.63;;;18.70;57.40;;;-142.21;86.06;112049.66;5070901;28;20447;-72
2022/06/01 00:37:52;;;;;;;4.30;2.60;;;18.50;57.70;;;-142.21;86.55;112049.66;5086510;28;20533;-72
2022/06/01 00:40:23;;;;;;;2.63;2.43;;;18.50;58.20;;;-142.21;87.07;112049.66;5089725;28;20942;-72
2022/06/01 00:42:54;;;;;;;2.73;2.53;;;18.40;58.00;;;-142.21;87.10;112049.66;5090185;28;20525;-72
2022/06/01 00:45:26;;;;;;;2.63;2.43;;;18.40;58.00;;;-142.21;87.36;112049.66;5082652;28;20503;-72
2022/06/01 00:47:54;;;;;;;2.80;2.47;;;18.40;57.80;;;-142.21;87.40;112049.66;5075259;28;20505;-72
2022/06/01 00:50:28;;;;;;;3.07;2.77;;;18.50;57.60;;;-142.21;87.53;112049.66;5079319;28;20778;-72
2022/06/01 00:53:02;;;;;;;2.90;2.60;;;18.50;57.80;;;-142.21;87.42;112049.66;5072865;28;20439;-72
2022/06/01 00:55:34;;;;;;;2.67;2.47;;;18.50;57.80;;;-142.21;87.54;112049.66;5071019;28;21003;-72
2022/06/01 00:58:11;;;;;;;2.30;2.10;;;18.60;57.70;;;-142.21;88.03;112049.66;5075739;28;20522;-72
2022/06/01 01:00:43;;;;;;;2.60;2.40;;;18.50;58.00;;;-142.21;88.15;112049.66;5073491;28;20919;-72
2022/06/01 01:03:18;;;;;;;3.90;2.53;;;18.50;58.20;;;-142.21;87.63;112049.66;5079528;28;21012;-72
2022/06/01 01:05:51;;;;;;;2.70;2.50;;;18.40;57.80;;;-142.21;88.01;112049.66;5080971;28;20556;-71
2022/06/01 01:08:19;;;;;;;2.93;2.70;;;18.40;58.20;;;-142.21;88.72;112049.66;5071704;28;20490;-72
2022/06/01 01:10:46;;;;;;;2.83;2.40;;;18.40;57.90;;;-142.21;88.94;112049.66;5072509;28;20541;-71
2022/06/01 01:13:15;;;;;;;2.53;2.33;;;18.40;58.10;;;-142.21;88.83;112049.66;5083537;28;20447;-72
2022/06/01 01:15:52;;;;;;;3.03;2.70;;;18.40;58.20;;;-142.21;89.29;112049.66;5072065;28;20482;-72
2022/06/01 01:18:25;;;;;;;3.00;2.37;;;18.30;58.50;;;-142.21;89.10;112049.66;5050816;28;20442;-72
2022/06/01 01:21:08;;;;;;;4.37;3.13;;;18.30;58.50;;;-142.21;89.54;112049.66;5071727;28;20459;-72
2022/06/01 01:23:49;;;;;;;3.03;2.60;;;18.20;58.80;;;-142.21;89.89;112049.66;5080263;28;20530;-72
2022/06/01 01:26:19;;;;;;;2.50;2.30;;;18.10;58.80;;;-142.21;90.68;112049.66;5077239;28;20444;-72
2022/06/01 01:28:46;;;;;;;3.67;2.83;;;18.10;59.00;;;-142.21;91.10;112049.66;5070906;28;20439;-72
2022/06/01 01:31:18;;;;;;;4.63;2.60;;;18.10;58.90;;;-142.21;90.68;112049.66;5078639;28;20453;-71
2022/06/01 01:33:49;;;;;;;2.80;2.60;;;18.10;59.00;;;-142.21;90.90;112049.66;5088976;28;20462;-72
2022/06/01 01:36:21;;;;;;;3.50;3.03;;;18.10;59.10;;;-142.21;90.52;112049.66;5076206;28;20999;-72
2022/06/01 01:38:55;;;;;;;3.30;2.60;;;18.00;58.90;;;-142.21;90.13;112049.66;5071415;28;20432;-71
2022/06/01 01:41:31;;;;;;;2.70;2.47;;;18.00;59.40;;;-142.21;90.54;112049.66;5070586;28;20530;-71
2022/06/01 01:44:09;;;;;;;2.70;2.50;;;18.00;59.00;;;-142.21;90.55;112049.66;5083865;28;20525;-71
2022/06/01 01:46:37;;;;;;;11.23;2.73;;;18.00;58.90;;;-142.21;90.54;112049.66;5095321;28;20434;-72
2022/06/01 01:49:05;;;;;;;2.60;2.40;;;18.00;58.80;;;-142.21;90.52;112049.66;5089801;28;20453;-72
2022/06/01 01:51:34;;;;;;;3.17;2.50;;;18.00;58.90;;;-142.21;90.33;112049.66;5074584;28;20825;-72
2022/06/01 01:54:02;;;;;;;3.13;2.37;;;17.90;59.10;;;-142.21;90.50;112049.66;5086625;28;20450;-72
2022/06/01 01:57:05;;;;;;;3.43;2.67;;;17.80;59.60;;;-142.21;90.94;112049.66;5082022;28;20454;-71
2022/06/01 01:59:50;;;;;;;3.13;2.37;;;17.80;59.50;;;-142.21;91.79;112049.66;5080342;28;20533;-72
2022/06/01 02:02:29;;;;;;;4.60;2.40;;;17.80;59.60;;;-142.21;92.10;112049.66;5085814;28;20534;-71
2022/06/01 02:08:02;;;;;;;3.60;2.30;;;17.80;59.50;;;-142.21;91.96;112049.66;5065911;28;20439;-72
2022/06/01 02:13:32;;;;;;;3.87;2.90;;;17.60;59.60;;;-142.21;91.67;112049.66;5108845;28;20405;-72
2022/06/01 02:16:02;;;;;;;3.00;2.70;;;17.60;59.60;;;-142.21;92.00;112049.66;5127523;28;20528;-71
2022/06/01 02:18:38;;;;;;;5.73;3.03;;;17.60;59.60;;;-142.21;91.91;112049.66;5128815;28;20760;-72
2022/06/01 02:21:13;;;;;;;3.57;2.60;;;17.70;59.70;;;-142.21;91.86;112049.66;5129861;27;20436;-71
2022/06/01 02:23:40;;;;;;;3.20;2.90;;;17.60;59.60;;;-142.21;91.55;112049.66;5129654;28;20444;-72
2022/06/01 02:26:09;;;;;;;2.97;2.67;;;17.70;59.40;;;-142.21;91.57;112049.66;5129254;28;20447;-71
2022/06/01 02:28:42;;;;;;;3.37;2.37;;;17.60;59.40;;;-142.21;91.76;112049.66;5129575;28;20838;-71
2022/06/01 02:31:11;;;;;;;3.23;2.70;;;17.60;59.60;;;-142.21;92.01;112049.66;5128499;28;20447;-71
2022/06/01 02:33:40;;;;;;;3.23;2.70;;;17.50;59.50;;;-142.21;92.35;112049.66;5129346;28;21000;-72
2022/06/01 02:36:10;;;;;;;3.33;2.30;;;17.50;59.60;;;-142.21;92.73;112049.66;5129571;27;20880;-72
2022/06/01 02:38:46;;;;;;;5.20;2.67;;;17.50;59.60;;;-142.21;92.67;112049.66;5129575;27;20454;-72
2022/06/01 02:43:56;;;;;;;3.40;2.50;;;17.40;59.90;;;-142.21;93.43;112049.66;5129213;27;20449;-71
2022/06/01 02:46:25;;;;;;;3.23;2.60;;;17.40;59.90;;;-142.21;92.97;112049.66;5128289;27;20473;-71
2022/06/01 02:48:52;;;;;;;3.23;2.67;;;17.40;59.90;;;-142.21;92.76;112049.66;5128722;28;20480;-72
2022/06/01 02:51:21;;;;;;;3.00;2.77;;;17.30;59.90;;;-142.21;92.34;112049.66;5128457;27;20455;-72
2022/06/01 02:53:48;;;;;;;3.00;2.50;;;17.30;60.00;;;-142.21;92.83;112049.66;5127973;27;20456;-71
2022/06/01 02:56:17;;;;;;;2.80;2.60;;;17.20;60.10;;;-142.21;93.85;112049.66;5128017;28;20945;-72
2022/06/01 02:58:44;;;;;;;2.73;2.53;;;17.10;60.70;;;-142.21;94.47;112049.66;5128382;28;21013;-71
2022/06/01 03:01:12;;;;;;;2.90;2.50;;;17.00;60.70;;;-142.21;94.51;112049.66;5128200;28;20489;-72
2022/06/01 03:03:40;;;;;;;2.90;2.70;;;17.00;60.90;;;-142.21;94.89;112049.66;5128831;28;20441;-72
2022/06/01 03:06:08;;;;;;;2.47;2.27;;;17.00;60.90;;;-142.21;94.76;112049.66;5128672;27;20453;-72
2022/06/01 03:08:35;;;;;;;3.17;2.87;;;17.00;61.00;;;-142.21;94.85;112049.66;5127304;28;20514;-72
2022/06/01 03:11:03;;;;;;;3.97;2.63;;;16.90;60.80;;;-142.21;94.89;112049.66;5128663;27;20824;-72
2022/06/01 03:13:33;;;;;;;2.70;2.50;;;16.90;60.80;;;-142.21;94.75;112049.66;5127394;27;20532;-72
2022/06/01 03:16:00;;;;;;;3.70;2.77;;;16.90;61.10;;;-142.21;94.38;112049.66;5128335;27;20475;-71
2022/06/01 03:18:27;;;;;;;2.80;2.60;;;16.90;60.80;;;-142.21;94.57;112049.66;5128138;27;20525;-71
2022/06/01 03:20:56;;;;;;;3.03;2.67;;;16.90;60.90;;;-142.21;94.77;112049.66;5121376;28;20498;-72
2022/06/01 03:23:23;;;;;;;3.23;2.60;;;16.80;61.00;;;-142.21;95.07;112049.66;5113938;28;20468;-71
2022/06/01 03:25:50;;;;;;;3.47;2.67;;;16.80;61.10;;;-142.21;95.02;112049.66;5114406;28;20878;-72
2022/06/01 03:28:17;;;;;;;2.93;2.63;;;16.80;61.20;;;-142.21;95.05;112049.66;5113240;28;20446;-72
2022/06/01 03:30:46;;;;;;;3.50;2.43;;;16.70;61.10;;;-142.21;95.15;112049.66;5114954;28;20580;-71
2022/06/01 03:33:14;;;;;;;3.97;2.70;;;16.70;61.90;;;-142.21;95.46;112049.66;5101653;28;20456;-72
2022/06/01 03:35:41;;;;;;;3.73;2.70;;;16.70;61.50;;;-142.21;95.48;112049.66;5114737;28;21015;-72
2022/06/01 03:38:12;;;;;;;3.17;2.87;;;16.70;61.70;;;-142.21;95.30;112049.66;5114263;28;20446;-72
2022/06/01 03:40:40;;;;;;;3.37;3.03;;;16.60;61.60;;;-142.21;96.20;112049.66;5114814;28;20445;-72
2022/06/01 03:43:07;;;;;;;2.70;2.50;;;16.40;62.20;;;-142.21;96.84;112049.66;5113966;28;20525;-72
2022/06/01 03:48:23;;;;;;;3.17;2.87;;;16.10;63.40;;;-142.21;98.00;112049.66;5100214;28;20422;-72
2022/06/01 03:50:51;;;;;;;2.73;2.53;;;15.90;63.80;;;-142.21;98.26;112049.66;5114595;27;20554;-72
2022/06/01 03:53:19;;;;;;;2.90;2.67;;;15.80;63.80;;;-142.21;98.84;112049.66;5113397;28;20528;-72
2022/06/01 03:55:47;;;;;;;2.80;2.60;;;15.60;64.50;;;-142.21;98.68;112049.66;5113733;28;20536;-72
2022/06/01 03:58:17;;;;;;;3.03;2.67;;;15.50;65.00;;;-142.21;99.73;112049.66;5113836;28;20551;-72
2022/06/01 04:00:45;;;;;;;3.00;2.67;;;15.50;65.60;;;-142.21;99.45;112049.66;5113508;28;20540;-72
2022/06/01 04:03:12;;;;;;;3.10;2.80;;;15.40;65.70;;;-142.21;99.54;112049.66;5114298;28;20453;-72
2022/06/01 04:05:41;;;;;;;3.10;2.80;;;15.40;65.70;;;-142.21;99.61;112049.66;5113537;28;20533;-72
2022/06/01 04:08:09;;;;;;;3.13;2.60;;;15.40;65.60;;;-142.21;99.08;112049.66;5113891;28;20481;-71
2022/06/01 04:10:42;;;;;;;3.03;2.70;;;15.60;65.00;;;-142.21;98.25;112049.66;5112697;28;20493;-72
2022/06/01 04:13:09;;;;;;;3.03;2.40;;;15.80;64.30;;;-142.21;97.48;112049.66;5113849;28;20856;-72
2022/06/01 04:15:36;;;;;;;2.67;2.43;;;16.00;63.70;;;-142.21;96.59;112049.66;5113565;27;20467;-71
2022/06/01 04:18:04;;;;;;;3.40;2.80;;;16.10;63.10;;;-142.21;95.81;112049.66;5114008;28;20446;-72
2022/06/01 04:20:31;;;;;;;2.90;2.70;;;16.20;62.90;;;-142.21;95.50;112049.66;5112974;28;20448;-72
2022/06/01 04:23:02;;;;;;;3.00;2.70;;;16.30;62.50;;;-142.21;95.42;112049.66;5113811;28;20791;-72
2022/06/01 04:25:31;;;;;;;3.87;2.87;;;16.40;62.40;;;-142.21;94.01;112049.66;5113027;28;20436;-72
2022/06/01 04:27:59;;;;;;;2.90;2.70;;;16.50;61.40;;;-142.21;93.75;112049.66;5113344;28;20949;-72
2022/06/01 04:30:27;;;;;;;3.10;2.70;;;16.60;61.00;;;-142.21;93.58;112049.66;5112755;28;20558;-72
2022/06/01 04:32:56;;;;;;;4.70;2.87;;;16.70;61.20;;;-142.21;92.97;112049.66;5112324;28;20540;-72
2022/06/01 04:35:25;;;;;;;3.10;2.83;;;16.70;61.00;;;-142.21;92.41;112049.66;5112151;28;20465;-72
2022/06/01 04:37:53;;;;;;;2.97;2.53;;;16.80;60.50;;;-142.21;92.10;112049.66;5113478;28;20491;-72
2022/06/01 04:40:42;;;;;;;3.33;2.80;;;16.90;60.40;;;-142.21;91.88;112049.66;5112088;28;20450;-71
2022/06/01 04:43:09;;;;;;;6.50;3.33;;;17.00;60.00;;;-142.21;91.79;112049.66;5113037;28;20529;-71
2022/06/01 04:45:36;;;;;;;7.60;3.77;;;17.00;59.90;;;-142.21;92.63;112049.66;5112546;28;21004;-71
2022/06/01 04:48:04;;;;;;;4.63;3.53;;;17.10;60.10;;;-142.21;91.76;112049.66;5113082;28;20529;-71
2022/06/01 04:50:31;;;;;;;4.37;2.70;;;17.20;59.80;;;-142.21;91.06;112049.66;5112078;28;20557;-71
2022/06/01 04:53:00;;;;;;;10.57;4.23;;;17.30;59.40;;;-142.21;92.77;112049.66;5113157;28;20445;-71
2022/06/01 04:55:27;;;;;;;3.13;2.63;;;17.30;59.90;;;-142.21;90.92;112049.66;5099603;28;20489;-71
2022/06/01 04:57:56;;;;;;;3.53;2.90;;;17.40;59.80;;;-142.21;90.42;112049.66;5113380;28;20489;-72
2022/06/01 05:00:24;;;;;;;3.23;2.50;;;17.50;59.40;;;-142.21;90.38;112049.66;5112012;28;20550;-72
2022/06/01 05:02:52;;;;;;;2.90;2.60;;;17.50;59.30;;;-142.21;89.77;112049.66;5113117;28;20445;-72
2022/06/01 05:05:19;;;;;;;2.50;2.30;;;17.60;59.00;;;-142.21;89.29;112049.66;5112173;27;20469;-71
2022/06/01 05:07:48;;;;;;;3.63;2.50;;;17.70;58.90;;;-142.21;89.42;112049.66;5112787;28;20477;-71
2022/06/01 05:10:15;;;;;;;2.43;2.23;;;17.70;59.00;;;-142.21;89.41;112049.66;5111723;28;20493;-72
2022/06/01 05:12:42;;;;;;;4.23;2.90;;;17.80;58.90;;;-142.21;89.12;112049.66;5112196;28;21011;-72
2022/06/01 05:15:11;;;;;;;2.60;2.40;;;17.80;58.80;;;-142.21;89.17;112049.66;5112559;28;20485;-71
2022/06/01 05:17:39;;;;;;;2.67;2.47;;;17.90;58.90;;;-142.21;88.84;112049.66;5111767;28;20478;-71
2022/06/01 05:20:08;;;;;;;2.80;2.50;;;18.00;58.80;;;-142.21;88.88;112049.66;5111895;28;20453;-71
2022/06/01 05:22:35;;;;;;;3.00;2.53;;;18.00;58.80;;;-142.21;87.91;112049.66;5112163;27;20481;-71
2022/06/01 05:25:03;;;;;;;4.77;2.60;;;18.20;58.50;;;-142.21;87.31;112049.66;5111266;28;20441;-71
2022/06/01 05:27:30;;;;;;;4.27;2.47;;;18.20;59.00;;;-142.21;87.23;112049.66;5111183;28;20494;-71
2022/06/01 05:29:58;;;;;;;3.57;2.80;;;18.30;58.40;;;-142.21;87.14;112049.66;5096736;28;20586;-70
2022/06/01 05:32:26;;;;;;;3.80;3.07;;;18.30;58.20;;;-142.21;86.66;112049.66;5103592;28;20480;-71
2022/06/01 05:34:54;;;;;;;2.97;2.53;;;18.40;58.20;;;-142.21;86.64;112049.66;5112397;28;20815;-71
2022/06/01 05:37:21;;;;;;;4.10;2.70;;;18.50;58.40;;;-142.21;86.37;112049.66;5104965;28;20467;-71
2022/06/01 05:39:48;;;;;;;4.40;2.50;;;18.60;58.90;;;-142.21;85.68;112049.66;5104600;28;20449;-71
2022/06/01 05:42:16;;;;;;;3.57;2.67;;;18.70;58.00;;;-142.21;84.66;112049.66;5111985;28;20441;-71
2022/06/01 05:44:43;;;;;;;5.33;3.00;;;18.80;57.80;;;-142.21;84.73;112049.66;5111150;28;20937;-71
2022/06/01 05:47:10;;;;;;;4.17;2.60;;;18.90;57.80;;;-142.21;84.38;112049.66;5111853;28;20446;-71
2022/06/01 05:49:39;;;;;;;2.83;2.50;;;19.00;57.60;;;-142.21;84.35;112049.66;5110994;28;20472;-71
2022/06/01 05:52:07;;;;;;;3.00;2.57;;;19.00;57.40;;;-142.21;83.79;112049.66;5111953;28;20865;-71
2022/06/01 05:54:34;;;;;;;5.57;2.77;;;19.10;57.40;;;-142.21;83.50;112049.66;5111559;28;20451;-71
2022/06/01 05:57:02;;;;;;;2.83;2.37;;;19.20;57.30;;;-142.21;83.01;112049.66;5111839;28;20498;-70
2022/06/01 05:59:29;;;;;;;3.57;2.23;;;19.20;57.10;;;-142.21;82.71;112049.66;5111776;28;20445;-70
2022/06/01 06:01:57;;;;;;;2.50;2.30;;;19.30;57.10;;;-142.21;80.38;112049.66;5111818;28;20502;-70
2022/06/01 06:04:24;;;;;;;3.10;2.40;;;19.40;56.60;;;-142.21;79.38;112049.66;5111229;28;20481;-70
2022/06/01 06:06:56;;;;;;;4.00;2.60;;;19.40;56.20;;;-142.21;78.91;112049.66;5091624;28;20212;-70
2022/06/01 06:09:24;;;;;;;2.60;2.40;;;19.50;56.20;;;-142.21;80.14;112049.66;5108943;28;20238;-70
2022/06/01 06:11:53;;;;;;;2.73;2.33;;;19.60;56.50;;;-142.21;78.88;112049.66;5112108;28;20706;-71
2022/06/01 06:14:22;;;;;;;2.30;2.10;;;19.70;56.80;;;-142.21;77.69;112049.66;5111069;28;20191;-70
2022/06/01 06:16:49;;;;;;;2.30;2.10;;;19.80;55.80;;;-142.21;75.63;112049.66;5111572;28;20199;-70
2022/06/01 06:19:19;;;;;;;3.10;2.10;;;19.80;55.30;;;-142.21;76.48;112049.66;5111915;28;20477;-71
2022/06/01 06:21:47;;;;;;;2.70;2.07;;;19.90;55.40;;;-142.21;76.01;112049.66;5106825;28;20536;-70
2022/06/01 06:24:19;;;;;;;2.80;2.50;;;20.00;55.20;;;-142.21;75.30;112049.66;5105937;28;20445;-70
2022/06/01 06:26:48;;;;;;;2.80;2.13;;;20.10;55.00;;;-142.21;74.62;112049.66;5107767;28;20242;-71
2022/06/01 06:29:19;;;;;;;6.07;2.40;;;20.20;54.70;;;-142.21;73.39;112049.66;5111610;28;20206;-71
2022/06/01 06:31:46;;;;;;;2.60;2.37;;;20.30;54.30;;;-142.21;71.97;112049.66;5111065;28;20307;-71
2022/06/01 06:34:14;;;;;;;4.30;2.53;;;20.20;54.20;;;-142.21;72.46;112049.66;5111829;28;20211;-71
2022/06/01 06:36:41;;;;;;;6.13;2.63;;;20.00;54.30;;;-142.21;72.48;112049.66;5111095;28;20210;-71
2022/06/01 06:39:08;;;;;;;3.10;2.37;;;20.10;55.10;;;-142.21;73.22;112049.66;5111974;28;20214;-70
2022/06/01 06:41:37;;;;;;;6.67;2.57;;;20.10;54.80;;;-142.21;71.86;112049.66;5111463;28;20256;-71
2022/06/01 06:44:05;;;;;;;4.27;2.30;;;20.30;54.60;;;-142.21;71.72;112049.66;5111804;28;20628;-70
2022/06/01 06:46:33;;;;;;;3.83;2.67;;;20.30;54.70;;;-142.21;71.45;112049.66;5111216;28;20261;-70
2022/06/01 06:49:00;;;;;;;2.53;2.33;;;20.40;54.60;;;-142.21;69.70;112049.66;5111466;28;20290;-71
2022/06/01 06:51:28;;;;;;;2.50;2.30;;;20.50;54.10;;;-142.21;69.75;112049.66;5110667;28;20227;-70
2022/06/01 06:53:55;;;;;;;2.40;2.20;;;20.50;53.90;;;-142.21;69.55;112049.66;5111509;28;20204;-71
2022/06/01 06:56:23;;;;;;;2.70;2.20;;;20.50;54.10;;;-142.21;69.79;112049.66;5113871;28;20235;-71
2022/06/01 06:58:51;;;;;;;2.80;2.10;;;20.50;54.30;;;-142.21;70.24;112049.66;5115110;28;20239;-71
2022/06/01 07:01:19;;;;;;;3.63;2.80;;;20.50;54.20;;;-142.21;70.31;112049.66;5115266;28;20247;-70
2022/06/01 07:03:46;;;;;;;2.60;2.10;;;20.50;54.40;;;-142.21;70.28;112049.66;5114895;28;20272;-70
2022/06/01 07:06:14;;;;;;;3.20;2.50;;;20.50;54.50;;;-142.21;71.22;112049.66;5115068;28;20258;-71
2022/06/01 07:08:44;;;;;;;3.43;2.70;;;20.60;54.80;;;-142.21;70.59;112049.66;5114250;28;20251;-71
2022/06/01 07:11:13;;;;;;;4.13;3.07;;;20.70;54.70;;;-142.21;71.62;112049.66;5115087;28;20717;-71
2022/06/01 07:13:40;;;;;;;2.13;1.83;;;20.80;54.90;;;-142.21;70.68;112049.66;5114321;28;20200;-70
2022/06/01 07:16:12;;;;;;;3.27;2.30;;;21.00;54.60;;;-142.21;69.95;112049.66;5115290;28;20239;-70
2022/06/01 07:18:43;;;;;;;3.17;2.30;;;21.10;54.20;;;-142.21;69.06;112049.66;5114774;28;20188;-71
2022/06/01 07:21:11;;;;;;;3.80;2.70;;;21.20;53.90;;;-142.21;65.14;112049.66;5115028;28;20602;-70
2022/06/01 07:23:39;;;;;;;3.13;2.43;;;21.30;52.90;;;-142.21;64.17;112049.66;5114299;28;20735;-70
2022/06/01 07:26:10;;;;;;;2.60;2.40;;;21.30;52.70;;;-142.21;61.39;112049.66;5115041;28;20537;-71
2022/06/01 07:28:38;;;;;;;2.77;2.30;;;21.20;51.80;;;-142.21;62.04;112049.66;5113916;28;20287;-70
2022/06/01 07:31:06;;;;;;;3.30;2.33;;;21.20;52.10;;;-142.21;59.99;112049.66;5114802;28;20798;-71
2022/06/01 07:33:36;;;;;;;2.43;2.23;;;21.30;51.60;;;-142.21;56.27;112049.66;5114509;28;20199;-71
2022/06/01 07:36:08;;;;;;;3.37;2.23;;;21.30;50.60;;;-142.21;55.81;112049.66;5114449;28;20238;-71
2022/06/01 07:44:14;;;;;;;4.93;2.27;;;21.70;49.60;;;-142.21;52.26;112049.66;5114434;28;20688;-71
2022/06/01 07:46:42;;;;;;;2.33;1.90;;;21.80;49.20;;;-142.21;48.53;112049.66;5113807;28;20210;-71
2022/06/01 07:49:11;;;;;;;3.10;2.53;;;22.00;47.50;;;-142.21;48.57;112049.66;5114213;28;20200;-70
2022/06/01 07:51:39;;;;;;;3.60;1.80;;;22.10;47.90;;;-142.21;46.43;112049.66;5114185;28;20254;-71
2022/06/01 07:54:08;;;;;;;2.27;2.00;;;22.30;46.70;;;-142.21;44.97;112049.66;5114453;28;20207;-71
2022/06/01 07:56:35;;;;;;;2.00;1.80;;;22.30;45.50;;;-142.21;45.15;112049.66;5113941;28;20211;-70
2022/06/01 07:59:05;;;;;;;2.10;1.83;;;22.30;46.30;;;-142.21;47.05;112049.66;5114157;28;20290;-70
2022/06/01 08:01:32;;;;;;;3.13;2.00;;;22.50;46.80;;;-142.21;44.12;112049.66;5113902;27;20235;-71
2022/06/01 08:04:03;;;;;;;2.13;1.90;;;22.60;45.30;;;-142.21;43.32;112049.66;5114261;28;20239;-71
2022/06/01 08:06:33;;;;;;;1.67;1.57;;;22.60;45.00;;;-142.21;42.66;112049.66;5113821;28;20279;-70
2022/06/01 08:09:01;;;;;;;2.30;1.87;;;22.60;44.20;;;-142.21;43.39;112049.66;5113990;28;20243;-71
2022/06/01 08:14:10;;;;;;;4.60;1.70;;;22.80;45.10;;;-142.21;40.44;112049.66;5114268;27;20208;-71
2022/06/01 08:16:39;;;;;;;3.07;1.73;;;22.90;42.20;;;-142.21;41.52;112049.66;5113603;27;20212;-70
2022/06/01 08:19:06;;;;;;;5.77;1.60;;;22.90;43.80;;;-142.21;39.33;112049.66;5114022;28;20211;-71
2022/06/01 08:21:36;;;;;;;1.97;1.50;;;22.80;41.90;;;-142.21;38.17;112049.66;5113302;28;20231;-70
2022/06/01 08:24:06;;;;;;;2.10;1.90;;;22.80;40.30;;;-142.21;39.07;112049.66;5114106;28;20280;-71
2022/06/01 08:26:34;;;;;;;2.57;1.87;;;22.70;41.60;;;-142.21;39.41;112049.66;5113283;28;20295;-71
2022/06/01 08:29:02;;;;;;;2.47;2.00;;;22.80;42.10;;;-142.21;39.75;112049.66;5113914;28;20211;-71
2022/06/01 08:31:30;;;;;;;2.77;1.70;;;22.90;42.10;;;-142.21;40.91;112049.66;5113835;28;20630;-71
2022/06/01 08:33:57;;;;;;;2.33;1.67;;;23.00;43.00;;;-142.21;39.08;112049.66;5113705;28;20246;-71
2022/06/01 08:36:25;;;;;;;5.77;2.07;;;23.10;41.80;;;-142.21;39.58;112049.66;5114027;28;20200;-71
2022/06/01 08:38:54;;;;;;;2.20;1.80;;;23.10;41.60;;;-142.21;40.44;112049.66;5113287;28;20286;-71
2022/06/01 08:41:27;;;;;;;1.60;1.50;;;23.20;42.70;;;-142.21;39.59;112049.66;5113524;28;20202;-71
2022/06/01 08:43:59;;;;;;;2.73;1.43;;;23.20;42.10;;;-142.21;39.41;112049.66;5112986;28;20198;-71
2022/06/01 08:46:29;;;;;;;5.33;1.80;;;23.40;42.20;;;-142.21;38.06;112049.66;5113685;28;20220;-71
2022/06/01 08:49:02;;;;;;;2.23;1.43;;;23.50;41.10;;;-142.21;38.10;112049.66;5113414;28;20194;-71
2022/06/01 08:51:32;;;;;;;2.57;1.80;;;23.30;40.50;;;-142.21;39.16;112049.66;5113589;28;20245;-71
2022/06/01 08:54:02;;;;;;;1.93;1.50;;;23.30;42.00;;;-142.21;37.99;112049.66;5113582;28;20210;-71
2022/06/01 08:56:37;;;;;;;1.40;1.30;;;23.50;40.50;;;-142.21;37.26;112049.66;5113216;28;20220;-71
2022/06/01 08:59:22;;;;;;;3.60;2.13;;;23.50;40.50;;;-142.21;37.22;112049.66;5113559;28;20194;-71
2022/06/01 09:02:05;;;;;;;2.17;1.70;;;23.60;40.20;;;-142.21;37.06;112049.66;5112638;28;20194;-71
2022/06/01 09:04:43;;;;;;;1.93;1.40;;;23.70;40.20;;;-142.21;36.52;112049.66;5112816;28;20217;-71
2022/06/01 09:07:25;;;;;;;2.27;1.67;;;23.70;39.00;;;-142.21;37.30;112049.66;5113042;27;20693;-70
2022/06/01 09:10:18;;;;;;;2.90;1.50;;;23.70;40.10;;;-142.21;36.87;112049.66;5112108;28;20276;-70
2022/06/01 09:12:48;;;;;;;2.23;1.50;;;23.90;39.80;;;-142.21;36.97;112049.66;5112320;28;20758;-71
2022/06/01 09:15:22;;;;;;;1.83;1.57;;;23.90;39.80;;;-142.21;36.59;112049.66;5113100;28;20237;-71
2022/06/01 09:17:50;;;;;;;1.67;1.40;;;24.00;39.70;;;-142.21;36.97;112049.66;5112212;28;20195;-71
2022/06/01 09:23:09;;;;;;;1.70;1.57;;;24.10;40.10;;;-142.21;38.43;112049.66;5112886;28;20187;-71
2022/06/01 09:25:38;;;;;;;2.00;1.40;;;24.30;41.00;;;-142.21;36.76;112049.66;5108836;28;20192;-71
2022/06/01 09:28:19;;;;;;;1.60;1.50;;;24.40;39.70;;;-142.21;35.57;112049.66;5112907;28;20199;-70
2022/06/01 09:30:54;;;;;;;3.33;1.67;;;24.40;38.50;;;-142.21;36.39;112049.66;5112112;27;20188;-71
2022/06/01 09:33:27;;;;;;;2.00;1.57;;;24.40;39.50;;;-142.21;36.17;112049.66;5112743;28;20201;-71
2022/06/01 09:36:26;;;;;;;1.87;1.50;;;24.40;39.20;;;-142.21;36.88;112049.66;5111986;28;20295;-71
2022/06/01 09:38:56;;;;;;;1.57;1.40;;;24.50;39.30;;;-142.21;36.49;112049.66;5111773;28;20215;-71
2022/06/01 09:41:36;;;;;;;3.30;1.90;;;24.70;39.80;;;-142.21;36.09;112049.66;5112694;28;20270;-71
2022/06/01 09:44:07;;;;;;;2.47;1.73;;;24.90;39.10;;;-142.21;35.63;112049.66;5112383;28;20198;-71
2022/06/01 09:46:50;;;;;;;4.37;1.67;;;25.00;39.30;;;-142.21;35.34;112049.66;5112583;28;20213;-72
2022/06/01 09:49:29;;;;;;;2.10;1.90;;;25.00;38.50;;;-142.21;34.93;112049.66;5112974;28;20187;-71
2022/06/01 09:52:01;;;;;;;2.60;2.10;;;24.90;37.90;;;-142.21;35.10;112049.66;5111652;28;20207;-71
2022/06/01 09:54:32;;;;;;;5.07;1.80;;;24.80;38.40;;;-142.21;36.08;112049.66;5112290;28;20653;-71
2022/06/01 09:57:18;;;;;;;2.20;1.90;;;24.90;39.00;;;-142.21;35.54;112049.66;5112056;28;20287;-71
2022/06/01 10:08:16;;;;;;;3.27;1.90;;;25.10;38.60;;;-142.21;34.75;112049.66;5112044;28;20231;-71
2022/06/01 10:10:59;;;;;;;5.10;1.63;;;25.30;37.90;;;-142.21;35.61;112049.66;5111756;28;20192;-71
2022/06/01 10:13:34;;;;;;;1.70;1.60;;;25.30;38.60;;;-142.21;33.37;112049.66;5112002;28;20684;-71
2022/06/01 10:16:14;;;;;;;1.73;1.60;;;25.30;36.50;;;-142.21;33.77;112049.66;5110538;28;20547;-70
2022/06/01 10:18:44;;;;;;;1.20;1.10;;;25.20;37.10;;;-142.21;33.71;112049.66;5111350;28;20192;-70
2022/06/01 10:21:18;;;;;;;3.03;1.47;;;25.20;36.90;;;-142.21;33.99;112049.66;5112098;28;20192;-71
2022/06/01 10:23:54;;;;;;;2.17;1.57;;;25.10;37.40;;;-142.21;34.47;112049.66;5111320;28;20283;-71
2022/06/01 10:26:27;;;;;;;2.30;1.80;;;25.30;38.10;;;-142.21;34.46;112049.66;5112095;28;20564;-71
2022/06/01 10:29:04;;;;;;;1.97;1.50;;;25.40;37.80;;;-142.21;33.92;112049.66;5111501;28;20188;-71
2022/06/01 10:31:42;;;;;;;1.97;1.40;;;25.60;37.10;;;-142.21;34.10;112049.66;5114394;28;20283;-70
2022/06/01 10:34:21;;;;;;;5.27;1.60;;;25.40;37.10;;;-142.21;33.32;112049.66;5116140;28;20191;-71
2022/06/01 10:36:56;;;;;;;3.10;1.60;;;25.40;36.10;;;-142.21;34.16;112049.66;5115766;28;20665;-71
2022/06/01 10:39:32;;;;;;;1.90;1.20;;;25.30;37.20;;;-142.21;33.29;112049.66;5116186;28;20745;-71
2022/06/01 10:42:16;;;;;;;2.20;1.37;;;25.30;36.40;;;-142.21;32.96;112049.66;5115499;28;20270;-70
2022/06/01 10:44:55;;;;;;;2.50;1.30;;;25.40;36.30;;;-142.21;33.17;112049.66;5114764;28;20215;-70